sensor_id;sensor_type;location;lat;lon;timestamp;pressure;altitude;pressure_sealevel;temperature;humidity
51289;BME280;37372;52.294;5.152;2024-03-08T00:00:33;102026.81;;;2.15;78.22
51289;BME280;37372;52.294;5.152;2024-03-08T00:02:59;102024.47;;;2.20;77.90
51289;BME280;37372;52.294;5.152;2024-03-08T00:05:26;102020.63;;;2.28;77.55
51289;BME280;37372;52.294;5.152;2024-03-08T00:07:51;102019.56;;;2.25;77.38
51289;BME280;37372;52.294;5.152;2024-03-08T00:10:20;102016.59;;;2.19;78.05
51289;BME280;37372;52.294;5.152;2024-03-08T00:12:46;102009.47;;;2.14;77.39
51289;BME280;37372;52.294;5.152;2024-03-08T00:15:17;102010.47;;;2.16;77.72
51289;BME280;37372;52.294;5.152;2024-03-08T00:17:44;102010.91;;;2.09;77.73
51289;BME280;37372;52.294;5.152;2024-03-08T00:20:11;102011.78;;;2.10;77.54
51289;BME280;37372;52.294;5.152;2024-03-08T00:22:40;102002.34;;;2.10;77.16
51289;BME280;37372;52.294;5.152;2024-03-08T00:25:06;101997.66;;;2.20;76.88
51289;BME280;37372;52.294;5.152;2024-03-08T00:27:35;102000.25;;;2.20;76.58
51289;BME280;37372;52.294;5.152;2024-03-08T00:30:04;102003.22;;;2.11;76.95
51289;BME280;37372;52.294;5.152;2024-03-08T00:32:30;101998.38;;;2.17;76.26
51289;BME280;37372;52.294;5.152;2024-03-08T00:34:58;101997.16;;;2.10;76.60
51289;BME280;37372;52.294;5.152;2024-03-08T00:37:23;101989.53;;;2.13;76.57
51289;BME280;37372;52.294;5.152;2024-03-08T00:39:50;101994.47;;;2.09;76.20
51289;BME280;37372;52.294;5.152;2024-03-08T00:42:16;101992.13;;;2.13;76.43
51289;BME280;37372;52.294;5.152;2024-03-08T00:44:41;101985.00;;;2.09;75.59
51289;BME280;37372;52.294;5.152;2024-03-08T00:47:07;101986.94;;;2.13;75.53
51289;BME280;37372;52.294;5.152;2024-03-08T00:49:32;101978.56;;;2.03;76.01
51289;BME280;37372;52.294;5.152;2024-03-08T00:51:58;101970.69;;;2.16;75.17
51289;BME280;37372;52.294;5.152;2024-03-08T00:54:24;101976.06;;;2.04;76.20
51289;BME280;37372;52.294;5.152;2024-03-08T00:56:49;101975.28;;;2.05;75.40
51289;BME280;37372;52.294;5.152;2024-03-08T00:59:14;101969.56;;;1.96;76.16
51289;BME280;37372;52.294;5.152;2024-03-08T01:01:40;101972.50;;;2.02;75.31
51289;BME280;37372;52.294;5.152;2024-03-08T01:04:06;101966.50;;;2.03;74.91
51289;BME280;37372;52.294;5.152;2024-03-08T01:06:34;101967.06;;;1.97;75.71
51289;BME280;37372;52.294;5.152;2024-03-08T01:08:59;101962.16;;;2.02;74.64
51289;BME280;37372;52.294;5.152;2024-03-08T01:11:25;101956.06;;;2.02;74.76
51289;BME280;37372;52.294;5.152;2024-03-08T01:13:53;101955.97;;;2.00;74.88
51289;BME280;37372;52.294;5.152;2024-03-08T01:16:18;101953.03;;;1.94;74.97
51289;BME280;37372;52.294;5.152;2024-03-08T01:18:46;101952.31;;;1.96;74.74
51289;BME280;37372;52.294;5.152;2024-03-08T01:21:11;101948.56;;;1.91;74.80
51289;BME280;37372;52.294;5.152;2024-03-08T01:23:37;101939.03;;;1.90;74.94
51289;BME280;37372;52.294;5.152;2024-03-08T01:26:03;101929.47;;;1.89;74.90
51289;BME280;37372;52.294;5.152;2024-03-08T01:28:28;101938.06;;;1.88;74.38
51289;BME280;37372;52.294;5.152;2024-03-08T01:30:54;101927.78;;;1.90;74.67
51289;BME280;37372;52.294;5.152;2024-03-08T01:33:24;101919.69;;;1.83;75.09
51289;BME280;37372;52.294;5.152;2024-03-08T01:35:53;101919.69;;;1.83;75.19
51289;BME280;37372;52.294;5.152;2024-03-08T01:38:21;101909.13;;;1.80;74.91
51289;BME280;37372;52.294;5.152;2024-03-08T01:40:48;101916.66;;;1.76;74.76
51289;BME280;37372;52.294;5.152;2024-03-08T01:43:18;101907.16;;;1.76;74.87
51289;BME280;37372;52.294;5.152;2024-03-08T01:45:43;101907.00;;;1.73;75.29
51289;BME280;37372;52.294;5.152;2024-03-08T01:48:09;101903.91;;;1.64;75.25
51289;BME280;37372;52.294;5.152;2024-03-08T01:50:35;101904.88;;;1.66;75.70
51289;BME280;37372;52.294;5.152;2024-03-08T01:53:01;101892.34;;;1.74;75.12
51289;BME280;37372;52.294;5.152;2024-03-08T01:55:27;101882.56;;;1.68;75.17
51289;BME280;37372;52.294;5.152;2024-03-08T01:57:53;101889.53;;;1.69;75.37
51289;BME280;37372;52.294;5.152;2024-03-08T02:00:19;101886.50;;;1.61;74.38
51289;BME280;37372;52.294;5.152;2024-03-08T02:02:46;101884.16;;;1.66;74.39
51289;BME280;37372;52.294;5.152;2024-03-08T02:05:12;101886.41;;;1.60;75.18
51289;BME280;37372;52.294;5.152;2024-03-08T02:07:42;101890.53;;;1.56;75.04
51289;BME280;37372;52.294;5.152;2024-03-08T02:10:10;101889.53;;;1.54;75.01
51289;BME280;37372;52.294;5.152;2024-03-08T02:12:37;101881.31;;;1.46;74.85
51289;BME280;37372;52.294;5.152;2024-03-08T02:15:05;101885.97;;;1.52;74.83
51289;BME280;37372;52.294;5.152;2024-03-08T02:17:33;101883.91;;;1.46;74.72
51289;BME280;37372;52.294;5.152;2024-03-08T02:19:59;101882.41;;;1.50;74.72
51289;BME280;37372;52.294;5.152;2024-03-08T02:22:30;101883.09;;;1.47;75.30
51289;BME280;37372;52.294;5.152;2024-03-08T02:24:58;101866.78;;;1.48;74.85
51289;BME280;37372;52.294;5.152;2024-03-08T02:27:27;101871.78;;;1.45;74.64
51289;BME280;37372;52.294;5.152;2024-03-08T02:29:56;101870.44;;;1.37;74.90
51289;BME280;37372;52.294;5.152;2024-03-08T02:32:22;101859.22;;;1.37;74.74
51289;BME280;37372;52.294;5.152;2024-03-08T02:34:48;101856.47;;;1.33;75.44
51289;BME280;37372;52.294;5.152;2024-03-08T02:37:14;101849.56;;;1.34;75.02
51289;BME280;37372;52.294;5.152;2024-03-08T02:39:40;101848.78;;;1.35;75.29
51289;BME280;37372;52.294;5.152;2024-03-08T02:42:06;101846.81;;;1.31;75.22
51289;BME280;37372;52.294;5.152;2024-03-08T02:44:33;101845.19;;;1.33;75.13
51289;BME280;37372;52.294;5.152;2024-03-08T02:46:59;101843.88;;;1.25;75.42
51289;BME280;37372;52.294;5.152;2024-03-08T02:49:25;101847.25;;;1.24;75.86
51289;BME280;37372;52.294;5.152;2024-03-08T02:51:52;101840.66;;;1.29;75.61
51289;BME280;37372;52.294;5.152;2024-03-08T02:54:17;101839.06;;;1.31;75.26
51289;BME280;37372;52.294;5.152;2024-03-08T02:56:44;101835.31;;;1.26;75.25
51289;BME280;37372;52.294;5.152;2024-03-08T02:59:14;101830.06;;;1.24;75.55
51289;BME280;37372;52.294;5.152;2024-03-08T03:01:42;101829.34;;;1.12;75.72
51289;BME280;37372;52.294;5.152;2024-03-08T03:04:09;101828.63;;;1.14;75.44
51289;BME280;37372;52.294;5.152;2024-03-08T03:06:36;101820.78;;;1.13;75.57
51289;BME280;37372;52.294;5.152;2024-03-08T03:09:02;101811.22;;;1.12;74.92
51289;BME280;37372;52.294;5.152;2024-03-08T03:11:27;101815.16;;;1.05;75.81
51289;BME280;37372;52.294;5.152;2024-03-08T03:13:53;101811.16;;;1.10;75.37
51289;BME280;37372;52.294;5.152;2024-03-08T03:16:19;101810.28;;;1.10;75.13
51289;BME280;37372;52.294;5.152;2024-03-08T03:18:45;101810.19;;;1.08;75.96
51289;BME280;37372;52.294;5.152;2024-03-08T03:21:12;101811.69;;;1.05;75.88
51289;BME280;37372;52.294;5.152;2024-03-08T03:23:41;101802.31;;;1.07;75.88
51289;BME280;37372;52.294;5.152;2024-03-08T03:26:10;101806.44;;;1.03;75.92
51289;BME280;37372;52.294;5.152;2024-03-08T03:28:37;101795.25;;;1.04;76.07
51289;BME280;37372;52.294;5.152;2024-03-08T03:31:07;101794.13;;;0.99;76.00
51289;BME280;37372;52.294;5.152;2024-03-08T03:33:32;101800.28;;;1.01;76.11
51289;BME280;37372;52.294;5.152;2024-03-08T03:36:03;101800.53;;;0.91;75.86
51289;BME280;37372;52.294;5.152;2024-03-08T03:38:30;101799.22;;;0.82;76.66
51289;BME280;37372;52.294;5.152;2024-03-08T03:40:57;101801.78;;;0.82;76.69
51289;BME280;37372;52.294;5.152;2024-03-08T03:43:30;101792.34;;;0.83;76.76
51289;BME280;37372;52.294;5.152;2024-03-08T03:45:56;101798.03;;;0.77;76.84
51289;BME280;37372;52.294;5.152;2024-03-08T03:48:22;101788.50;;;0.76;76.49
51289;BME280;37372;52.294;5.152;2024-03-08T03:50:47;101785.91;;;0.76;76.86
51289;BME280;37372;52.294;5.152;2024-03-08T03:53:14;101784.50;;;0.81;76.71
51289;BME280;37372;52.294;5.152;2024-03-08T03:55:40;101782.69;;;0.80;76.47
51289;BME280;37372;52.294;5.152;2024-03-08T03:58:05;101772.34;;;0.80;76.31
51289;BME280;37372;52.294;5.152;2024-03-08T04:00:32;101780.22;;;0.82;76.48
51289;BME280;37372;52.294;5.152;2024-03-08T04:02:57;101788.34;;;0.73;76.57
51289;BME280;37372;52.294;5.152;2024-03-08T04:05:26;101784.16;;;0.75;75.88
51289;BME280;37372;52.294;5.152;2024-03-08T04:07:52;101779.88;;;0.76;76.59
51289;BME280;37372;52.294;5.152;2024-03-08T04:10:17;101782.16;;;0.71;76.43
51289;BME280;37372;52.294;5.152;2024-03-08T04:12:42;101778.44;;;0.66;76.56
51289;BME280;37372;52.294;5.152;2024-03-08T04:15:09;101775.25;;;0.70;76.54
51289;BME280;37372;52.294;5.152;2024-03-08T04:17:36;101770.78;;;0.68;76.40
51289;BME280;37372;52.294;5.152;2024-03-08T04:20:03;101773.09;;;0.63;76.48
51289;BME280;37372;52.294;5.152;2024-03-08T04:22:34;101763.53;;;0.62;76.42
51289;BME280;37372;52.294;5.152;2024-03-08T04:25:01;101768.44;;;0.57;76.97
51289;BME280;37372;52.294;5.152;2024-03-08T04:27:28;101767.38;;;0.54;76.98
51289;BME280;37372;52.294;5.152;2024-03-08T04:29:57;101768.09;;;0.51;77.43
51289;BME280;37372;52.294;5.152;2024-03-08T04:32:23;101764.25;;;0.59;76.88
51289;BME280;37372;52.294;5.152;2024-03-08T04:34:48;101757.81;;;0.53;76.60
51289;BME280;37372;52.294;5.152;2024-03-08T04:37:14;101773.78;;;0.45;77.17
51289;BME280;37372;52.294;5.152;2024-03-08T04:39:40;101760.78;;;0.44;77.36
51289;BME280;37372;52.294;5.152;2024-03-08T04:42:05;101765.13;;;0.45;77.61
51289;BME280;37372;52.294;5.152;2024-03-08T04:44:36;101757.50;;;0.46;77.54
51289;BME280;37372;52.294;5.152;2024-03-08T04:47:03;101755.69;;;0.45;76.93
51289;BME280;37372;52.294;5.152;2024-03-08T04:49:34;101749.13;;;0.51;76.95
51289;BME280;37372;52.294;5.152;2024-03-08T04:52:05;101757.19;;;0.57;76.72
51289;BME280;37372;52.294;5.152;2024-03-08T04:54:33;101751.00;;;0.53;76.55
51289;BME280;37372;52.294;5.152;2024-03-08T04:56:59;101749.03;;;0.49;76.44
51289;BME280;37372;52.294;5.152;2024-03-08T04:59:26;101750.53;;;0.45;77.19
51289;BME280;37372;52.294;5.152;2024-03-08T05:01:52;101746.94;;;0.43;77.19
51289;BME280;37372;52.294;5.152;2024-03-08T05:04:17;101744.75;;;0.49;76.89
51289;BME280;37372;52.294;5.152;2024-03-08T05:06:43;101732.97;;;0.55;76.54
51289;BME280;37372;52.294;5.152;2024-03-08T05:09:08;101743.16;;;0.52;76.02
51289;BME280;37372;52.294;5.152;2024-03-08T05:11:45;101741.69;;;0.57;76.16
51289;BME280;37372;52.294;5.152;2024-03-08T05:14:11;101741.69;;;0.57;76.28
51289;BME280;37372;52.294;5.152;2024-03-08T05:16:42;101739.75;;;0.53;76.01
51289;BME280;37372;52.294;5.152;2024-03-08T05:19:09;101743.84;;;0.49;76.70
51289;BME280;37372;52.294;5.152;2024-03-08T05:21:35;101737.44;;;0.42;76.88
51289;BME280;37372;52.294;5.152;2024-03-08T05:24:01;101739.75;;;0.38;77.54
51289;BME280;37372;52.294;5.152;2024-03-08T05:26:26;101739.56;;;0.35;77.16
51289;BME280;37372;52.294;5.152;2024-03-08T05:28:52;101736.16;;;0.36;77.35
51289;BME280;37372;52.294;5.152;2024-03-08T05:31:21;101736.38;;;0.39;77.18
51289;BME280;37372;52.294;5.152;2024-03-08T05:33:49;101728.88;;;0.43;77.00
51289;BME280;37372;52.294;5.152;2024-03-08T05:36:15;101733.50;;;0.34;77.61
51289;BME280;37372;52.294;5.152;2024-03-08T05:38:43;101729.50;;;0.39;77.43
51289;BME280;37372;52.294;5.152;2024-03-08T05:41:09;101735.13;;;0.47;76.93
51289;BME280;37372;52.294;5.152;2024-03-08T05:43:35;101731.44;;;0.43;77.15
51289;BME280;37372;52.294;5.152;2024-03-08T05:46:01;101725.84;;;0.51;76.09
51289;BME280;37372;52.294;5.152;2024-03-08T05:48:31;101730.22;;;0.52;75.77
51289;BME280;37372;52.294;5.152;2024-03-08T05:51:00;101726.03;;;0.54;76.21
51289;BME280;37372;52.294;5.152;2024-03-08T05:53:27;101730.81;;;0.47;76.36
51289;BME280;37372;52.294;5.152;2024-03-08T05:55:52;101722.28;;;0.48;76.23
51289;BME280;37372;52.294;5.152;2024-03-08T05:58:18;101719.44;;;0.44;75.84
51289;BME280;37372;52.294;5.152;2024-03-08T06:00:44;101718.97;;;0.51;75.57
51289;BME280;37372;52.294;5.152;2024-03-08T06:03:11;101725.16;;;0.53;75.45
51289;BME280;37372;52.294;5.152;2024-03-08T06:05:37;101722.56;;;0.53;76.13
51289;BME280;37372;52.294;5.152;2024-03-08T06:08:03;101711.69;;;0.59;75.08
51289;BME280;37372;52.294;5.152;2024-03-08T06:10:29;101714.34;;;0.60;75.26
51289;BME280;37372;52.294;5.152;2024-03-08T06:12:55;101716.84;;;0.59;75.11
51289;BME280;37372;52.294;5.152;2024-03-08T06:15:22;101709.47;;;0.65;74.83
51289;BME280;37372;52.294;5.152;2024-03-08T06:17:47;101705.16;;;0.65;74.67
51289;BME280;37372;52.294;5.152;2024-03-08T06:20:13;101701.63;;;0.63;75.19
51289;BME280;37372;52.294;5.152;2024-03-08T06:22:41;101688.78;;;0.65;75.02
51289;BME280;37372;52.294;5.152;2024-03-08T06:25:16;101705.72;;;0.60;74.51
51289;BME280;37372;52.294;5.152;2024-03-08T06:27:42;101704.09;;;0.62;73.81
51289;BME280;37372;52.294;5.152;2024-03-08T06:30:09;101699.19;;;0.66;74.18
51289;BME280;37372;52.294;5.152;2024-03-08T06:32:36;101700.91;;;0.66;74.12
51289;BME280;37372;52.294;5.152;2024-03-08T06:35:03;101694.66;;;0.62;74.41
51289;BME280;37372;52.294;5.152;2024-03-08T06:37:34;101702.84;;;0.70;74.23
51289;BME280;37372;52.294;5.152;2024-03-08T06:40:00;101705.25;;;0.67;74.20
51289;BME280;37372;52.294;5.152;2024-03-08T06:42:29;101701.78;;;0.66;74.50
51289;BME280;37372;52.294;5.152;2024-03-08T06:44:59;101699.44;;;0.71;73.56
51289;BME280;37372;52.294;5.152;2024-03-08T06:47:29;101699.44;;;0.71;74.02
51289;BME280;37372;52.294;5.152;2024-03-08T06:49:58;101697.69;;;0.70;73.94
51289;BME280;37372;52.294;5.152;2024-03-08T06:52:24;101696.97;;;0.73;73.36
51289;BME280;37372;52.294;5.152;2024-03-08T06:54:49;101695.09;;;0.70;74.07
51289;BME280;37372;52.294;5.152;2024-03-08T06:57:15;101695.91;;;0.69;73.92
51289;BME280;37372;52.294;5.152;2024-03-08T06:59:42;101697.50;;;0.82;73.17
51289;BME280;37372;52.294;5.152;2024-03-08T07:02:08;101693.19;;;0.82;73.38
51289;BME280;37372;52.294;5.152;2024-03-08T07:04:34;101691.50;;;0.83;73.36
51289;BME280;37372;52.294;5.152;2024-03-08T07:07:04;101700.34;;;0.72;73.50
51289;BME280;37372;52.294;5.152;2024-03-08T07:09:31;101690.47;;;0.79;73.48
51289;BME280;37372;52.294;5.152;2024-03-08T07:11:56;101689.63;;;0.95;72.74
51289;BME280;37372;52.294;5.152;2024-03-08T07:14:23;101686.03;;;0.93;72.69
51289;BME280;37372;52.294;5.152;2024-03-08T07:16:49;101672.47;;;0.97;72.27
51289;BME280;37372;52.294;5.152;2024-03-08T07:19:15;101677.13;;;1.03;72.59
51289;BME280;37372;52.294;5.152;2024-03-08T07:21:43;101673.19;;;0.95;72.44
51289;BME280;37372;52.294;5.152;2024-03-08T07:24:10;101680.44;;;1.01;72.07
51289;BME280;37372;52.294;5.152;2024-03-08T07:26:45;101670.31;;;1.05;72.23
51289;BME280;37372;52.294;5.152;2024-03-08T07:29:16;101673.81;;;1.06;71.99
51289;BME280;37372;52.294;5.152;2024-03-08T07:31:41;101671.22;;;1.06;72.20
51289;BME280;37372;52.294;5.152;2024-03-08T07:34:07;101672.88;;;1.20;71.30
51289;BME280;37372;52.294;5.152;2024-03-08T07:36:36;101669.31;;;1.18;71.30
51289;BME280;37372;52.294;5.152;2024-03-08T07:39:01;101671.53;;;1.12;71.70
51289;BME280;37372;52.294;5.152;2024-03-08T07:41:31;101670.66;;;1.11;71.42
51289;BME280;37372;52.294;5.152;2024-03-08T07:43:57;101658.72;;;1.30;71.45
51289;BME280;37372;52.294;5.152;2024-03-08T07:46:22;101657.75;;;1.28;70.77
51289;BME280;37372;52.294;5.152;2024-03-08T07:48:48;101653.47;;;1.28;71.21
51289;BME280;37372;52.294;5.152;2024-03-08T07:51:16;101650.81;;;1.43;71.96
51289;BME280;37372;52.294;5.152;2024-03-08T07:53:43;101645.72;;;1.45;70.51
51289;BME280;37372;52.294;5.152;2024-03-08T07:56:08;101648.22;;;1.43;70.43
51289;BME280;37372;52.294;5.152;2024-03-08T07:58:38;101642.59;;;1.51;69.41
51289;BME280;37372;52.294;5.152;2024-03-08T08:01:06;101641.59;;;1.48;70.32
51289;BME280;37372;52.294;5.152;2024-03-08T08:03:32;101643.69;;;1.56;70.11
51289;BME280;37372;52.294;5.152;2024-03-08T08:05:57;101643.94;;;1.60;69.78
51289;BME280;37372;52.294;5.152;2024-03-08T08:08:23;101640.47;;;1.60;69.73
51289;BME280;37372;52.294;5.152;2024-03-08T08:10:51;101638.91;;;1.63;69.85
51289;BME280;37372;52.294;5.152;2024-03-08T08:13:16;101634.00;;;1.68;70.30
51289;BME280;37372;52.294;5.152;2024-03-08T08:15:43;101634.31;;;1.74;70.49
51289;BME280;37372;52.294;5.152;2024-03-08T08:18:09;101640.53;;;1.78;69.20
51289;BME280;37372;52.294;5.152;2024-03-08T08:20:35;101627.19;;;1.87;69.59
51289;BME280;37372;52.294;5.152;2024-03-08T08:23:00;101625.47;;;1.87;69.69
51289;BME280;37372;52.294;5.152;2024-03-08T08:25:26;101621.19;;;1.88;69.08
51289;BME280;37372;52.294;5.152;2024-03-08T08:27:53;101620.75;;;1.96;68.15
51289;BME280;37372;52.294;5.152;2024-03-08T08:30:19;101613.22;;;2.01;68.76
51289;BME280;37372;52.294;5.152;2024-03-08T08:32:44;101609.84;;;2.02;69.42
51289;BME280;37372;52.294;5.152;2024-03-08T08:35:15;101608.72;;;2.15;68.50
51289;BME280;37372;52.294;5.152;2024-03-08T08:38:10;101599.94;;;2.11;67.90
51289;BME280;37372;52.294;5.152;2024-03-08T08:40:37;101602.41;;;2.10;68.03
51289;BME280;37372;52.294;5.152;2024-03-08T08:43:03;101596.59;;;2.14;68.11
51289;BME280;37372;52.294;5.152;2024-03-08T08:45:32;101595.22;;;2.21;67.90
51289;BME280;37372;52.294;5.152;2024-03-08T08:47:58;101597.94;;;2.24;68.37
51289;BME280;37372;52.294;5.152;2024-03-08T08:50:26;101599.00;;;2.27;67.76
51289;BME280;37372;52.294;5.152;2024-03-08T08:52:54;101590.84;;;2.38;67.14
51289;BME280;37372;52.294;5.152;2024-03-08T08:55:23;101585.56;;;2.36;68.14
51289;BME280;37372;52.294;5.152;2024-03-08T08:57:56;101588.47;;;2.42;67.18
51289;BME280;37372;52.294;5.152;2024-03-08T09:00:22;101580.84;;;2.45;67.60
51289;BME280;37372;52.294;5.152;2024-03-08T09:02:52;101579.22;;;2.47;67.21
51289;BME280;37372;52.294;5.152;2024-03-08T09:05:20;101575.94;;;2.52;67.83
51289;BME280;37372;52.294;5.152;2024-03-08T09:07:46;101574.97;;;2.67;66.75
51289;BME280;37372;52.294;5.152;2024-03-08T09:10:12;101570.31;;;2.60;66.49
51289;BME280;37372;52.294;5.152;2024-03-08T09:12:38;101568.69;;;2.62;67.20
51289;BME280;37372;52.294;5.152;2024-03-08T09:15:05;101566.81;;;2.60;66.61
51289;BME280;37372;52.294;5.152;2024-03-08T09:17:30;101569.34;;;2.76;66.77
51289;BME280;37372;52.294;5.152;2024-03-08T09:19:57;101560.75;;;2.77;66.66
51289;BME280;37372;52.294;5.152;2024-03-08T09:22:23;101553.53;;;2.90;66.45
51289;BME280;37372;52.294;5.152;2024-03-08T09:24:48;101564.44;;;3.02;66.43
51289;BME280;37372;52.294;5.152;2024-03-08T09:27:13;101550.53;;;3.00;65.67
51289;BME280;37372;52.294;5.152;2024-03-08T09:29:39;101550.66;;;3.03;65.95
51289;BME280;37372;52.294;5.152;2024-03-08T09:32:04;101546.94;;;3.16;66.38
51289;BME280;37372;52.294;5.152;2024-03-08T09:34:30;101551.41;;;3.00;66.01
51289;BME280;37372;52.294;5.152;2024-03-08T09:36:55;101541.09;;;3.02;64.90
51289;BME280;37372;52.294;5.152;2024-03-08T09:39:21;101536.53;;;3.16;65.95
51289;BME280;37372;52.294;5.152;2024-03-08T09:41:47;101539.47;;;3.24;66.00
51289;BME280;37372;52.294;5.152;2024-03-08T09:44:15;101522.81;;;3.38;65.61
51289;BME280;37372;52.294;5.152;2024-03-08T09:46:41;101515.09;;;3.40;65.92
51289;BME280;37372;52.294;5.152;2024-03-08T09:49:07;101511.09;;;3.48;65.43
51289;BME280;37372;52.294;5.152;2024-03-08T09:51:34;101501.75;;;3.52;64.39
51289;BME280;37372;52.294;5.152;2024-03-08T09:54:03;101508.44;;;3.46;65.01
51289;BME280;37372;52.294;5.152;2024-03-08T09:56:34;101503.53;;;3.53;63.86
51289;BME280;37372;52.294;5.152;2024-03-08T09:59:00;101491.53;;;3.56;65.19
51289;BME280;37372;52.294;5.152;2024-03-08T10:01:48;101478.25;;;3.70;64.95
51289;BME280;37372;52.294;5.152;2024-03-08T10:04:13;101472.16;;;3.69;63.94
51289;BME280;37372;52.294;5.152;2024-03-08T10:06:42;101478.50;;;3.76;64.23
51289;BME280;37372;52.294;5.152;2024-03-08T10:09:09;101483.38;;;3.89;63.56
51289;BME280;37372;52.294;5.152;2024-03-08T10:11:35;101474.75;;;3.90;63.46
51289;BME280;37372;52.294;5.152;2024-03-08T10:14:01;101477.72;;;3.99;63.78
51289;BME280;37372;52.294;5.152;2024-03-08T10:16:29;101468.78;;;3.93;64.55
51289;BME280;37372;52.294;5.152;2024-03-08T10:18:56;101465.75;;;4.03;63.83
51289;BME280;37372;52.294;5.152;2024-03-08T10:21:22;101465.03;;;4.07;62.74
51289;BME280;37372;52.294;5.152;2024-03-08T10:23:48;101455.66;;;4.11;63.65
51289;BME280;37372;52.294;5.152;2024-03-08T10:26:17;101456.78;;;4.18;63.48
51289;BME280;37372;52.294;5.152;2024-03-08T10:28:45;101450.81;;;4.20;63.39
51289;BME280;37372;52.294;5.152;2024-03-08T10:31:13;101439.81;;;4.27;63.44
51289;BME280;37372;52.294;5.152;2024-03-08T10:33:38;101443.06;;;4.44;63.58
51289;BME280;37372;52.294;5.152;2024-03-08T10:36:06;101438.94;;;4.49;61.47
51289;BME280;37372;52.294;5.152;2024-03-08T10:38:35;101427.47;;;4.44;62.40
51289;BME280;37372;52.294;5.152;2024-03-08T10:41:01;101431.75;;;4.42;61.86
51289;BME280;37372;52.294;5.152;2024-03-08T10:43:32;101422.66;;;4.55;62.71
51289;BME280;37372;52.294;5.152;2024-03-08T10:49:23;101406.50;;;4.64;61.99
51289;BME280;37372;52.294;5.152;2024-03-08T10:51:50;101405.78;;;4.68;61.80
51289;BME280;37372;52.294;5.152;2024-03-08T10:54:18;101399.13;;;4.76;61.30
51289;BME280;37372;52.294;5.152;2024-03-08T10:56:45;101386.69;;;4.92;60.65
51289;BME280;37372;52.294;5.152;2024-03-08T10:59:12;101383.25;;;4.93;60.48
51289;BME280;37372;52.294;5.152;2024-03-08T11:01:39;101386.31;;;5.07;60.90
51289;BME280;37372;52.294;5.152;2024-03-08T11:04:05;101374.81;;;5.00;60.19
51289;BME280;37372;52.294;5.152;2024-03-08T11:09:02;101368.84;;;5.03;60.51
51289;BME280;37372;52.294;5.152;2024-03-08T11:11:31;101372.66;;;5.12;60.79
51289;BME280;37372;52.294;5.152;2024-03-08T11:13:57;101363.06;;;5.11;60.71
51289;BME280;37372;52.294;5.152;2024-03-08T11:18:59;101353.59;;;5.13;60.30
51289;BME280;37372;52.294;5.152;2024-03-08T11:21:32;101352.22;;;5.25;60.67
51289;BME280;37372;52.294;5.152;2024-03-08T11:24:12;101341.50;;;5.41;59.71
51289;BME280;37372;52.294;5.152;2024-03-08T11:26:38;101339.81;;;5.43;60.17
51289;BME280;37372;52.294;5.152;2024-03-08T11:32:14;101327.13;;;5.54;58.85
51289;BME280;37372;52.294;5.152;2024-03-08T11:34:41;101319.88;;;5.44;60.09
51289;BME280;37372;52.294;5.152;2024-03-08T11:37:14;101318.69;;;5.61;59.61
51289;BME280;37372;52.294;5.152;2024-03-08T11:39:46;101318.13;;;5.72;59.32
51289;BME280;37372;52.294;5.152;2024-03-08T11:42:14;101309.84;;;5.85;60.02
51289;BME280;37372;52.294;5.152;2024-03-08T11:44:39;101304.63;;;5.85;58.65
51289;BME280;37372;52.294;5.152;2024-03-08T11:47:09;101292.66;;;5.92;58.64
51289;BME280;37372;52.294;5.152;2024-03-08T11:49:35;101286.69;;;5.96;57.69
51289;BME280;37372;52.294;5.152;2024-03-08T11:52:01;101287.53;;;5.95;57.93
51289;BME280;37372;52.294;5.152;2024-03-08T11:54:26;101282.31;;;5.95;57.56
51289;BME280;37372;52.294;5.152;2024-03-08T11:56:52;101275.72;;;6.06;58.29
51289;BME280;37372;52.294;5.152;2024-03-08T11:59:17;101258.81;;;6.24;57.24
51289;BME280;37372;52.294;5.152;2024-03-08T12:01:43;101250.16;;;6.25;57.67
51289;BME280;37372;52.294;5.152;2024-03-08T12:04:12;101249.06;;;6.15;56.76
51289;BME280;37372;52.294;5.152;2024-03-08T12:06:39;101240.41;;;6.18;57.45
51289;BME280;37372;52.294;5.152;2024-03-08T12:09:09;101248.00;;;6.40;57.90
51289;BME280;37372;52.294;5.152;2024-03-08T12:11:35;101228.78;;;6.38;56.47
51289;BME280;37372;52.294;5.152;2024-03-08T12:14:01;101228.78;;;6.38;56.73
51289;BME280;37372;52.294;5.152;2024-03-08T12:16:27;101227.88;;;6.36;56.07
51289;BME280;37372;52.294;5.152;2024-03-08T12:18:52;101209.41;;;6.62;55.71
51289;BME280;37372;52.294;5.152;2024-03-08T12:21:19;101219.19;;;6.71;54.55
51289;BME280;37372;52.294;5.152;2024-03-08T12:26:30;101205.47;;;6.79;54.74
51289;BME280;37372;52.294;5.152;2024-03-08T12:29:15;101208.41;;;6.92;54.18
51289;BME280;37372;52.294;5.152;2024-03-08T12:31:42;101195.25;;;6.89;53.15
51289;BME280;37372;52.294;5.152;2024-03-08T12:34:08;101199.56;;;6.87;54.48
51289;BME280;37372;52.294;5.152;2024-03-08T12:36:35;101185.72;;;6.89;54.57
51289;BME280;37372;52.294;5.152;2024-03-08T12:39:05;101184.94;;;6.93;54.67
51289;BME280;37372;52.294;5.152;2024-03-08T12:41:32;101187.16;;;7.14;52.97
51289;BME280;37372;52.294;5.152;2024-03-08T12:43:57;101181.91;;;7.13;52.84
51289;BME280;37372;52.294;5.152;2024-03-08T12:46:23;101179.47;;;7.21;52.71
51289;BME280;37372;52.294;5.152;2024-03-08T12:48:51;101168.88;;;7.14;52.28
51289;BME280;37372;52.294;5.152;2024-03-08T12:51:20;101166.34;;;7.19;53.50
51289;BME280;37372;52.294;5.152;2024-03-08T12:53:46;101142.09;;;7.23;52.51
51289;BME280;37372;52.294;5.152;2024-03-08T12:56:12;101160.47;;;7.28;51.92
51289;BME280;37372;52.294;5.152;2024-03-08T12:58:38;101162.19;;;7.26;51.41
51289;BME280;37372;52.294;5.152;2024-03-08T13:01:04;101153.75;;;7.39;51.98
51289;BME280;37372;52.294;5.152;2024-03-08T13:03:32;101155.69;;;7.49;51.80
51289;BME280;37372;52.294;5.152;2024-03-08T13:05:59;101153.00;;;7.45;51.54
51289;BME280;37372;52.294;5.152;2024-03-08T13:08:25;101140.31;;;7.65;51.19
51289;BME280;37372;52.294;5.152;2024-03-08T13:10:53;101139.47;;;7.66;51.16
51289;BME280;37372;52.294;5.152;2024-03-08T13:13:19;101127.91;;;7.55;52.32